createdAt,value
2023-04-28T00:01:12.253Z,100567.31
2023-04-28T00:03:40.250Z,100586.25
2023-04-28T00:06:07.673Z,100577.00
2023-04-28T00:08:35.416Z,100568.38
2023-04-28T00:11:02.967Z,100573.72
2023-04-28T00:13:30.651Z,100567.69
2023-04-28T00:15:59.879Z,100563.28
2023-04-28T00:18:27.425Z,100572.66
2023-04-28T00:20:55.867Z,100570.56
2023-04-28T00:23:23.667Z,100571.53
2023-04-28T00:25:52.349Z,100583.03
2023-04-28T00:28:32.928Z,100576.09
2023-04-28T00:31:02.263Z,100578.56
2023-04-28T00:33:30.002Z,100576.94
2023-04-28T00:36:01.416Z,100589.50
2023-04-28T00:38:29.131Z,100588.25
2023-04-28T00:40:56.389Z,100590.06
2023-04-28T00:43:23.957Z,100585.47
2023-04-28T00:45:52.214Z,100578.66
2023-04-28T00:48:20.422Z,100579.34
2023-04-28T00:50:48.610Z,100582.00
2023-04-28T00:53:16.165Z,100574.56
2023-04-28T00:55:43.492Z,100579.31
2023-04-28T00:58:11.428Z,100579.50
2023-04-28T01:00:39.509Z,100573.19
2023-04-28T01:03:08.093Z,100577.31
2023-04-28T01:05:36.801Z,100571.13
2023-04-28T01:08:04.876Z,100569.47
2023-04-28T01:10:32.982Z,100573.38
2023-04-28T01:13:07.467Z,100565.38
2023-04-28T01:15:35.289Z,100569.53
2023-04-28T01:18:02.902Z,100571.13
2023-04-28T01:20:30.522Z,100576.94
2023-04-28T01:22:58.478Z,100580.00
2023-04-28T01:25:25.774Z,100579.34
2023-04-28T01:27:54.086Z,100572.25
2023-04-28T01:30:21.364Z,100572.81
2023-04-28T01:32:48.899Z,100568.16
2023-04-28T01:35:16.194Z,100574.16
2023-04-28T01:37:43.728Z,100577.94
2023-04-28T01:40:11.689Z,100575.47
2023-04-28T01:42:39.436Z,100581.47
2023-04-28T01:45:07.070Z,100569.19
2023-04-28T01:47:34.662Z,100573.66
2023-04-28T01:50:02.292Z,100586.78
2023-04-28T01:52:30.418Z,100584.88
2023-04-28T01:54:57.871Z,100584.03
2023-04-28T01:57:26.115Z,100583.56
2023-04-28T01:59:53.748Z,100575.34
2023-04-28T02:02:21.528Z,100579.38
2023-04-28T02:04:48.852Z,100582.88
2023-04-28T02:07:16.469Z,100579.75
2023-04-28T02:09:43.833Z,100578.06
2023-04-28T02:12:11.432Z,100569.69
2023-04-28T02:14:38.666Z,100583.75
2023-04-28T02:17:06.293Z,100570.63
2023-04-28T02:19:33.956Z,100579.66
2023-04-28T02:22:01.463Z,100561.88
2023-04-28T02:24:28.990Z,100581.53
2023-04-28T02:26:59.051Z,100578.22
2023-04-28T02:29:28.382Z,100582.97
2023-04-28T02:31:58.777Z,100571.28
2023-04-28T02:34:26.182Z,100576.22
2023-04-28T02:36:53.770Z,100579.16
2023-04-28T02:39:22.692Z,100589.97
2023-04-28T02:41:50.139Z,100584.31
2023-04-28T02:44:17.518Z,100584.47
2023-04-28T02:46:45.274Z,100572.75
2023-04-28T02:49:13.235Z,100585.63
2023-04-28T02:51:41.354Z,100583.16
2023-04-28T02:54:08.947Z,100595.31
2023-04-28T02:56:37.321Z,100581.22
2023-04-28T02:59:05.199Z,100577.25
2023-04-28T03:01:32.813Z,100581.91
2023-04-28T03:04:00.369Z,100580.97
2023-04-28T03:06:28.409Z,100589.97
2023-04-28T03:08:55.758Z,100589.44
2023-04-28T03:11:23.359Z,100590.28
2023-04-28T03:13:50.872Z,100582.03
2023-04-28T03:16:18.682Z,100582.03
2023-04-28T03:18:45.985Z,100588.13
2023-04-28T03:21:13.501Z,100580.91
2023-04-28T03:23:40.852Z,100584.13
2023-04-28T03:26:08.546Z,100582.22
2023-04-28T03:28:35.855Z,100585.72
2023-04-28T03:31:03.644Z,100579.94
2023-04-28T03:33:31.216Z,100595.13
2023-04-28T03:36:00.578Z,100585.59
2023-04-28T03:38:28.164Z,100589.97
2023-04-28T03:40:55.819Z,100587.66
2023-04-28T03:43:46.151Z,100589.31
2023-04-28T03:46:25.396Z,100593.47
2023-04-28T03:48:53.648Z,100594.50
2023-04-28T03:51:21.375Z,100600.22
2023-04-28T03:53:48.699Z,100594.72
2023-04-28T03:56:16.308Z,100593.91
2023-04-28T03:58:43.669Z,100600.59
2023-04-28T04:01:11.552Z,100598.59
2023-04-28T04:03:40.240Z,100596.91
2023-04-28T04:06:08.697Z,100598.91
2023-04-28T04:08:36.373Z,100602.63
2023-04-28T04:11:04.573Z,100605.56
2023-04-28T04:13:32.509Z,100603.09
2023-04-28T04:16:00.435Z,100620.69
2023-04-28T04:18:27.937Z,100618.44
2023-04-28T04:21:31.868Z,100613.72
2023-04-28T04:23:59.867Z,100613.16
2023-04-28T04:26:27.588Z,100615.19
2023-04-28T04:28:54.932Z,100614.09
2023-04-28T04:31:22.947Z,100616.88
2023-04-28T04:33:51.922Z,100619.88
2023-04-28T04:36:21.337Z,100626.53
2023-04-28T04:38:51.903Z,100629.84
2023-04-28T04:41:22.818Z,100626.53
2023-04-28T04:43:56.182Z,100633.78
2023-04-28T04:46:29.489Z,100636.50
2023-04-28T04:48:57.030Z,100626.00
2023-04-28T04:51:24.534Z,100633.28
2023-04-28T04:53:52.677Z,100634.59
2023-04-28T04:56:20.380Z,100637.50
2023-04-28T04:58:48.007Z,100638.09
2023-04-28T05:01:34.220Z,100637.00
2023-04-28T05:04:01.798Z,100637.75
2023-04-28T05:06:29.751Z,100646.38
2023-04-28T05:08:58.427Z,100654.66
2023-04-28T05:11:26.396Z,100650.72
2023-04-28T05:13:53.687Z,100652.81
2023-04-28T05:16:21.461Z,100665.47
2023-04-28T05:19:01.364Z,100662.44
2023-04-28T05:21:28.878Z,100656.34
2023-04-28T05:23:57.308Z,100653.50
2023-04-28T05:26:24.983Z,100653.47
2023-04-28T05:28:55.422Z,100656.56
2023-04-28T05:31:23.065Z,100661.03
2023-04-28T05:33:50.877Z,100652.16
2023-04-28T05:36:18.501Z,100659.72
2023-04-28T05:38:46.887Z,100668.59
2023-04-28T05:41:14.363Z,100673.81
2023-04-28T05:43:41.698Z,100667.22
2023-04-28T05:46:18.245Z,100664.72
2023-04-28T05:48:49.545Z,100667.00
2023-04-28T05:51:17.099Z,100666.88
2023-04-28T05:53:44.383Z,100661.78
2023-04-28T05:56:11.887Z,100657.22
2023-04-28T05:58:39.251Z,100656.56
2023-04-28T06:01:06.765Z,100650.34
2023-04-28T06:06:01.698Z,100667.38
2023-04-28T06:08:29.027Z,100667.47
2023-04-28T06:10:57.032Z,100662.06
2023-04-28T06:13:24.242Z,100665.06
2023-04-28T06:15:52.028Z,100670.22
2023-04-28T06:18:19.399Z,100668.69
2023-04-28T06:20:47.593Z,100676.13
2023-04-28T06:23:14.875Z,100676.28
2023-04-28T06:25:46.088Z,100672.22
2023-04-28T06:28:15.071Z,100670.41
2023-04-28T06:30:42.948Z,100672.06
2023-04-28T06:33:10.273Z,100669.63
2023-04-28T06:35:39.179Z,100674.34
2023-04-28T06:38:06.757Z,100664.88
2023-04-28T06:40:34.348Z,100671.00
2023-04-28T06:43:03.263Z,100654.94
2023-04-28T06:45:41.930Z,100661.59
2023-04-28T06:48:09.444Z,100658.88
2023-04-28T06:50:40.318Z,100668.72
2023-04-28T06:53:08.440Z,100659.69
2023-04-28T06:55:36.121Z,100659.38
2023-04-28T06:58:03.404Z,100664.13
2023-04-28T07:00:31.024Z,100671.38
2023-04-28T07:02:58.699Z,100667.69
2023-04-28T07:05:26.594Z,100660.78
2023-04-28T07:07:53.835Z,100659.44
2023-04-28T07:10:21.357Z,100651.91
2023-04-28T07:12:52.427Z,100658.00
2023-04-28T07:15:19.946Z,100658.81
2023-04-28T07:17:47.185Z,100656.63
2023-04-28T07:20:15.109Z,100664.28
2023-04-28T07:22:42.342Z,100648.63
2023-04-28T07:25:10.011Z,100644.41
2023-04-28T07:27:37.463Z,100648.69
2023-04-28T07:30:18.550Z,100644.38
2023-04-28T07:32:53.243Z,100627.22
2023-04-28T07:35:20.913Z,100644.31
2023-04-28T07:37:48.480Z,100644.38
2023-04-28T07:40:16.469Z,100645.94
2023-04-28T07:42:44.008Z,100635.50
2023-04-28T07:45:12.165Z,100639.66
2023-04-28T07:47:39.772Z,100628.44
2023-04-28T07:50:08.343Z,100638.44
2023-04-28T07:52:35.869Z,100630.78
2023-04-28T07:55:04.378Z,100634.66
2023-04-28T07:57:32.158Z,100636.06
2023-04-28T07:59:59.662Z,100620.91
2023-04-28T08:02:27.518Z,100620.72
2023-04-28T08:04:55.345Z,100617.69
2023-04-28T08:07:22.884Z,100620.09
2023-04-28T08:09:52.049Z,100616.28
2023-04-28T08:12:20.706Z,100618.03
2023-04-28T08:14:48.738Z,100610.88
2023-04-28T08:17:16.392Z,100616.41
2023-04-28T08:19:46.407Z,100619.41
2023-04-28T08:22:13.811Z,100620.06
2023-04-28T08:24:41.528Z,100615.91
2023-04-28T08:27:08.856Z,100604.81
2023-04-28T08:29:36.565Z,100599.28
2023-04-28T08:32:05.113Z,100610.41
2023-04-28T08:34:33.731Z,100605.38
2023-04-28T08:37:01.039Z,100596.78
2023-04-28T08:39:29.172Z,100602.03
2023-04-28T08:41:56.993Z,100591.25
2023-04-28T08:44:24.488Z,100594.13
2023-04-28T08:46:56.540Z,100580.72
2023-04-28T08:49:34.625Z,100584.66
2023-04-28T08:52:01.984Z,100585.69
2023-04-28T08:54:36.472Z,100583.31
2023-04-28T08:57:05.637Z,100591.25
2023-04-28T08:59:33.360Z,100586.66
2023-04-28T09:02:00.827Z,100590.69
2023-04-28T09:04:28.725Z,100595.66
2023-04-28T09:06:56.356Z,100589.66
2023-04-28T09:09:24.822Z,100592.09
2023-04-28T09:11:58.392Z,100589.91
2023-04-28T09:14:27.581Z,100593.09
2023-04-28T09:16:55.478Z,100582.81
2023-04-28T09:19:23.316Z,100577.38
2023-04-28T09:21:56.687Z,100587.56
2023-04-28T09:24:41.801Z,100588.63
2023-04-28T09:27:11.831Z,100580.63
2023-04-28T09:29:39.754Z,100586.50
2023-04-28T09:32:14.659Z,100585.72
2023-04-28T09:34:45.465Z,100582.47
2023-04-28T09:37:20.229Z,100579.22
2023-04-28T09:39:50.863Z,100582.25
2023-04-28T09:42:34.894Z,100603.16
2023-04-28T09:45:07.206Z,100598.56
2023-04-28T09:47:40.039Z,100591.97
2023-04-28T09:50:12.627Z,100596.53
2023-04-28T09:52:41.516Z,100593.31
2023-04-28T09:55:12.207Z,100588.09
2023-04-28T09:57:40.150Z,100587.22
2023-04-28T10:00:09.452Z,100578.69
2023-04-28T10:05:10.953Z,100578.44
2023-04-28T10:07:39.629Z,100583.22
2023-04-28T10:10:08.025Z,100570.13
2023-04-28T10:12:38.586Z,100574.81
2023-04-28T10:15:09.750Z,100570.63
2023-04-28T10:17:37.473Z,100562.94
2023-04-28T10:20:06.575Z,100561.00
2023-04-28T10:22:52.624Z,100556.03
2023-04-28T10:25:34.295Z,100561.94
2023-04-28T10:28:06.169Z,100555.53
2023-04-28T10:30:34.306Z,100544.22
2023-04-28T10:33:14.022Z,100554.88
2023-04-28T10:35:45.691Z,100558.44
2023-04-28T10:38:23.656Z,100556.06
2023-04-28T10:40:52.530Z,100555.50
2023-04-28T10:43:34.540Z,100555.53
2023-04-28T10:46:06.069Z,100556.38
2023-04-28T10:48:33.622Z,100558.41
2023-04-28T10:51:08.110Z,100555.97
2023-04-28T10:53:51.899Z,100561.69
2023-04-28T10:56:27.264Z,100555.94
2023-04-28T10:58:56.098Z,100556.00
2023-04-28T11:01:35.010Z,100553.00
2023-04-28T11:04:17.031Z,100551.25
2023-04-28T11:06:46.635Z,100547.22
2023-04-28T11:09:17.620Z,100552.28
2023-04-28T11:12:00.243Z,100548.41
2023-04-28T11:14:36.025Z,100549.19
2023-04-28T11:17:06.064Z,100541.66
2023-04-28T11:19:34.621Z,100548.38
2023-04-28T11:22:09.947Z,100540.97
2023-04-28T11:24:37.703Z,100548.31
2023-04-28T11:27:05.583Z,100544.09
2023-04-28T11:29:38.778Z,100538.69
2023-04-28T11:32:10.941Z,100556.59
2023-04-28T11:34:38.461Z,100541.19
2023-04-28T11:37:08.604Z,100548.63
2023-04-28T11:39:35.975Z,100547.63
2023-04-28T11:42:10.888Z,100542.91
2023-04-28T11:44:38.297Z,100541.97
2023-04-28T11:47:07.093Z,100532.69
2023-04-28T11:49:47.095Z,100535.44
2023-04-28T11:52:14.694Z,100539.31
2023-04-28T11:54:44.730Z,100538.31
2023-04-28T11:57:20.484Z,100532.31
2023-04-28T11:59:48.976Z,100537.84
2023-04-28T12:02:26.676Z,100534.56
2023-04-28T12:04:54.100Z,100536.34
2023-04-28T12:07:21.739Z,100522.16
2023-04-28T12:10:11.874Z,100533.00
2023-04-28T12:12:50.738Z,100525.00
2023-04-28T12:15:21.252Z,100526.75
2023-04-28T12:17:51.127Z,100524.34
2023-04-28T12:20:36.467Z,100508.09
2023-04-28T12:23:04.472Z,100513.78
2023-04-28T12:25:31.985Z,100506.59
2023-04-28T12:28:08.206Z,100499.91
2023-04-28T12:30:44.037Z,100503.59
2023-04-28T12:33:29.097Z,100504.25
2023-04-28T12:35:57.535Z,100515.22
2023-04-28T12:38:26.477Z,100507.28
2023-04-28T12:40:53.953Z,100496.38
2023-04-28T12:43:23.506Z,100500.13
2023-04-28T12:45:53.691Z,100491.63
2023-04-28T12:48:23.928Z,100496.81
2023-04-28T12:50:51.929Z,100483.06
2023-04-28T12:53:19.503Z,100492.44
2023-04-28T12:55:46.776Z,100492.13
2023-04-28T12:58:14.281Z,100488.44
2023-04-28T13:00:42.035Z,100486.16
2023-04-28T13:03:09.913Z,100480.94
2023-04-28T13:05:37.386Z,100488.56
2023-04-28T13:08:05.307Z,100482.50
2023-04-28T13:10:32.601Z,100485.06
2023-04-28T13:13:00.424Z,100490.34
2023-04-28T13:15:27.793Z,100479.72
2023-04-28T13:17:55.332Z,100482.41
2023-04-28T13:20:22.723Z,100473.34
2023-04-28T13:22:50.229Z,100472.31
2023-04-28T13:25:17.511Z,100480.31
2023-04-28T13:27:44.996Z,100477.53
2023-04-28T13:30:13.005Z,100471.63
2023-04-28T13:32:40.699Z,100474.41
2023-04-28T13:35:09.092Z,100466.44
2023-04-28T13:37:42.586Z,100462.72
2023-04-28T13:40:10.219Z,100469.38
2023-04-28T13:42:38.011Z,100464.34
2023-04-28T13:45:05.749Z,100451.81
2023-04-28T13:47:33.392Z,100454.03
2023-04-28T13:50:01.499Z,100448.84
2023-04-28T13:52:29.077Z,100460.56
2023-04-28T13:54:56.313Z,100454.34
2023-04-28T13:57:23.860Z,100456.03
2023-04-28T13:59:51.280Z,100454.75
2023-04-28T14:02:18.888Z,100446.84
2023-04-28T14:04:49.403Z,100446.47
2023-04-28T14:07:17.295Z,100449.63
2023-04-28T14:09:44.799Z,100452.16
2023-04-28T14:12:13.989Z,100453.69
2023-04-28T14:14:41.643Z,100445.25
2023-04-28T14:17:09.562Z,100439.06
2023-04-28T14:19:36.920Z,100447.00
2023-04-28T14:22:04.436Z,100446.00
2023-04-28T14:24:31.603Z,100441.69
2023-04-28T14:26:59.150Z,100433.69
2023-04-28T14:29:26.360Z,100429.81
2023-04-28T14:31:53.916Z,100435.81
2023-04-28T14:34:21.085Z,100426.66
2023-04-28T14:36:48.751Z,100424.09
2023-04-28T14:39:16.168Z,100424.41
2023-04-28T14:41:43.878Z,100431.44
2023-04-28T14:44:11.384Z,100433.34
2023-04-28T14:46:39.093Z,100420.16
2023-04-28T14:49:06.777Z,100430.31
2023-04-28T14:51:34.310Z,100418.75
2023-04-28T14:54:02.270Z,100416.72
2023-04-28T14:56:30.744Z,100420.72
2023-04-28T14:58:58.911Z,100427.88
2023-04-28T15:01:26.673Z,100416.59
2023-04-28T15:03:54.008Z,100413.75
2023-04-28T15:06:22.322Z,100416.06
2023-04-28T15:08:49.519Z,100417.13
2023-04-28T15:11:17.113Z,100419.09
2023-04-28T15:13:44.347Z,100410.38
2023-04-28T15:16:12.263Z,100429.31
2023-04-28T15:18:39.624Z,100414.06
2023-04-28T15:21:08.626Z,100422.41
2023-04-28T15:23:36.073Z,100421.28
2023-04-28T15:26:04.941Z,100402.09
2023-04-28T15:28:32.320Z,100412.16
2023-04-28T15:30:59.955Z,100413.41
2023-04-28T15:33:28.191Z,100410.72
2023-04-28T15:35:55.878Z,100419.34
2023-04-28T15:38:23.154Z,100420.03
2023-04-28T15:40:50.759Z,100391.97
2023-04-28T15:43:18.376Z,100405.59
2023-04-28T15:45:47.076Z,100408.19
2023-04-28T15:48:15.421Z,100393.44
2023-04-28T15:50:43.482Z,100404.94
2023-04-28T15:53:10.829Z,100411.03
2023-04-28T15:55:38.415Z,100398.66
2023-04-28T15:58:05.737Z,100397.25
2023-04-28T16:00:33.380Z,100404.22
2023-04-28T16:03:01.604Z,100408.00
2023-04-28T16:05:29.466Z,100402.91
2023-04-28T16:07:56.777Z,100413.53
2023-04-28T16:10:24.354Z,100405.50
2023-04-28T16:12:51.745Z,100408.84
2023-04-28T16:15:19.243Z,100402.63
2023-04-28T16:17:46.854Z,100401.47
2023-04-28T16:20:14.535Z,100388.00
2023-04-28T16:22:42.004Z,100392.72
2023-04-28T16:25:10.737Z,100397.50
2023-04-28T16:27:39.061Z,100382.91
2023-04-28T16:30:07.706Z,100394.28
2023-04-28T16:32:36.733Z,100394.63
2023-04-28T16:35:06.427Z,100387.66
2023-04-28T16:37:33.884Z,100392.44
2023-04-28T16:40:01.746Z,100388.25
2023-04-28T16:42:29.322Z,100389.25
2023-04-28T16:44:57.784Z,100392.53
2023-04-28T16:47:25.260Z,100396.13
2023-04-28T16:49:53.550Z,100398.31
2023-04-28T16:52:20.883Z,100389.66
2023-04-28T16:54:48.695Z,100386.28
2023-04-28T16:57:15.951Z,100388.94
2023-04-28T16:59:43.518Z,100393.63
2023-04-28T17:02:10.788Z,100385.78
2023-04-28T17:04:38.748Z,100387.09
2023-04-28T17:07:06.557Z,100386.25
2023-04-28T17:09:34.059Z,100373.03
2023-04-28T17:12:01.346Z,100382.66
2023-04-28T17:14:28.914Z,100381.06
2023-04-28T17:16:56.634Z,100366.81
2023-04-28T17:19:24.233Z,100379.72
2023-04-28T17:21:52.857Z,100373.88
2023-04-28T17:24:20.527Z,100370.63
2023-04-28T17:26:47.863Z,100383.09
2023-04-28T17:29:15.560Z,100382.38
2023-04-28T17:31:42.847Z,100376.53
2023-04-28T17:34:10.506Z,100370.88
2023-04-28T17:36:37.798Z,100367.47
2023-04-28T17:39:05.336Z,100371.66
2023-04-28T17:41:32.492Z,100365.78
2023-04-28T17:44:00.132Z,100364.50
2023-04-28T17:46:27.692Z,100365.16
2023-04-28T17:48:55.205Z,100363.25
2023-04-28T17:51:23.115Z,100365.34
2023-04-28T17:53:50.867Z,100360.63
2023-04-28T17:56:18.151Z,100366.78
2023-04-28T17:58:45.688Z,100364.56
2023-04-28T18:01:12.880Z,100369.25
2023-04-28T18:03:41.446Z,100357.09
2023-04-28T18:06:08.904Z,100363.97
2023-04-28T18:08:37.088Z,100363.44
2023-04-28T18:11:05.145Z,100372.91
2023-04-28T18:13:33.652Z,100350.28
2023-04-28T18:16:01.423Z,100355.38
2023-04-28T18:18:30.632Z,100361.75
2023-04-28T18:20:59.801Z,100357.72
2023-04-28T18:23:27.546Z,100353.72
2023-04-28T18:25:54.773Z,100352.06
2023-04-28T18:28:22.431Z,100356.03
2023-04-28T18:30:49.696Z,100358.78
2023-04-28T18:33:22.983Z,100358.28
2023-04-28T18:35:59.551Z,100355.31
2023-04-28T18:38:27.241Z,100357.34
2023-04-28T18:40:54.425Z,100355.19
2023-04-28T18:43:23.639Z,100343.53
2023-04-28T18:45:50.935Z,100355.22
2023-04-28T18:48:19.667Z,100352.31
2023-04-28T18:50:48.696Z,100347.91
2023-04-28T18:53:17.547Z,100360.75
2023-04-28T18:55:44.979Z,100356.69
2023-04-28T18:58:15.121Z,100350.63
2023-04-28T19:00:45.421Z,100352.81
2023-04-28T19:03:13.615Z,100347.25
2023-04-28T19:05:43.945Z,100355.16
2023-04-28T19:08:12.191Z,100353.56
2023-04-28T19:10:39.421Z,100340.03
2023-04-28T19:13:07.562Z,100342.84
2023-04-28T19:15:35.146Z,100346.47
2023-04-28T19:18:04.849Z,100351.34
2023-04-28T19:20:32.162Z,100345.75
2023-04-28T19:23:01.706Z,100351.63
2023-04-28T19:25:30.769Z,100353.91
2023-04-28T19:27:58.280Z,100352.91
2023-04-28T19:30:25.480Z,100354.72
2023-04-28T19:32:52.988Z,100350.59
2023-04-28T19:35:21.474Z,100350.88
2023-04-28T19:37:49.983Z,100336.19
2023-04-28T19:40:17.580Z,100332.72
2023-04-28T19:42:45.123Z,100335.25
2023-04-28T19:45:12.463Z,100332.88
2023-04-28T19:47:40.673Z,100324.78
2023-04-28T19:50:09.916Z,100334.38
2023-04-28T19:52:37.656Z,100327.16
2023-04-28T19:55:05.186Z,100332.66
2023-04-28T19:57:32.679Z,100339.44
2023-04-28T19:59:59.991Z,100332.53
2023-04-28T20:02:27.742Z,100327.75
2023-04-28T20:04:56.643Z,100329.78
2023-04-28T20:07:24.099Z,100325.88
2023-04-28T20:09:52.688Z,100341.28
2023-04-28T20:12:20.357Z,100335.25
2023-04-28T20:14:47.728Z,100340.03
2023-04-28T20:17:16.760Z,100336.44
2023-04-28T20:19:44.573Z,100326.31
2023-04-28T20:22:12.134Z,100330.75
2023-04-28T20:24:40.205Z,100333.78
2023-04-28T20:27:07.986Z,100331.34
2023-04-28T20:29:35.782Z,100332.44
2023-04-28T20:32:04.420Z,100315.47
2023-04-28T20:34:32.377Z,100329.78
2023-04-28T20:37:03.219Z,100314.25
2023-04-28T20:39:30.809Z,100323.47
2023-04-28T20:41:59.709Z,100322.47
2023-04-28T20:44:27.007Z,100319.19
2023-04-28T20:46:55.426Z,100320.03
2023-04-28T20:49:22.730Z,100306.91
2023-04-28T20:51:50.391Z,100310.84
2023-04-28T20:54:17.665Z,100316.38
2023-04-28T20:56:45.414Z,100317.63
2023-04-28T20:59:12.635Z,100308.75
2023-04-28T21:01:41.151Z,100319.59
2023-04-28T21:04:09.098Z,100312.53
2023-04-28T21:06:36.840Z,100310.31
2023-04-28T21:09:04.228Z,100299.13
2023-04-28T21:11:31.739Z,100302.06
2023-04-28T21:13:58.943Z,100300.44
2023-04-28T21:16:26.608Z,100306.78
2023-04-28T21:18:54.695Z,100297.41
2023-04-28T21:21:22.430Z,100299.03
2023-04-28T21:23:49.706Z,100294.47
2023-04-28T21:26:17.286Z,100295.88
2023-04-28T21:28:44.455Z,100296.88
2023-04-28T21:31:12.009Z,100283.09
2023-04-28T21:33:39.196Z,100294.16
2023-04-28T21:36:08.136Z,100279.03
2023-04-28T21:38:39.757Z,100279.03
2023-04-28T21:41:07.851Z,100293.72
2023-04-28T21:43:35.215Z,100285.81
2023-04-28T21:46:04.548Z,100279.63
2023-04-28T21:48:31.848Z,100281.94
2023-04-28T21:51:00.042Z,100278.38
2023-04-28T21:53:28.683Z,100284.47
2023-04-28T21:55:56.308Z,100270.03
2023-04-28T21:58:23.944Z,100270.66
2023-04-28T22:00:51.973Z,100284.22
2023-04-28T22:03:19.934Z,100279.81
2023-04-28T22:05:47.575Z,100288.41
2023-04-28T22:08:15.582Z,100284.69
2023-04-28T22:10:45.576Z,100281.69
2023-04-28T22:13:13.262Z,100280.41
2023-04-28T22:15:41.809Z,100272.03
2023-04-28T22:18:09.092Z,100272.91
2023-04-28T22:20:36.812Z,100277.78
2023-04-28T22:23:04.773Z,100263.50
2023-04-28T22:25:32.426Z,100276.97
2023-04-28T22:27:59.711Z,100273.97
2023-04-28T22:30:27.320Z,100275.28
2023-04-28T22:32:54.518Z,100265.69
2023-04-28T22:35:22.049Z,100264.28
2023-04-28T22:37:49.294Z,100259.66
2023-04-28T22:40:16.801Z,100252.81
2023-04-28T22:42:44.604Z,100259.59
2023-04-28T22:45:12.459Z,100251.34
2023-04-28T22:47:43.528Z,100254.59
2023-04-28T22:50:12.004Z,100246.66
2023-04-28T22:52:39.253Z,100241.94
2023-04-28T22:55:07.197Z,100240.94
2023-04-28T22:57:34.653Z,100246.69
2023-04-28T23:00:04.079Z,100242.81
2023-04-28T23:02:32.028Z,100248.91
2023-04-28T23:05:00.707Z,100234.31
2023-04-28T23:07:27.922Z,100236.28
2023-04-28T23:09:55.417Z,100235.22
2023-04-28T23:12:22.641Z,100233.81
2023-04-28T23:14:50.261Z,100223.47
2023-04-28T23:17:17.492Z,100224.78
2023-04-28T23:19:44.954Z,100229.97
2023-04-28T23:22:12.234Z,100228.03
2023-04-28T23:24:40.166Z,100222.19
2023-04-28T23:27:07.680Z,100226.75
2023-04-28T23:29:36.030Z,100219.31
2023-04-28T23:32:04.378Z,100219.59
2023-04-28T23:34:32.001Z,100208.16
2023-04-28T23:36:59.386Z,100197.03
2023-04-28T23:39:29.955Z,100203.31
2023-04-28T23:41:57.280Z,100189.88
2023-04-28T23:44:24.722Z,100197.44
2023-04-28T23:46:52.120Z,100191.22
2023-04-28T23:49:21.235Z,100184.44
2023-04-28T23:51:48.469Z,100181.63
2023-04-28T23:54:15.941Z,100177.72
2023-04-28T23:56:43.306Z,100184.53
2023-04-28T23:59:10.819Z,100172.63
